createdAt,value
2022-10-03T00:00:18.439Z,13.71
2022-10-03T00:09:31.142Z,13.48
2022-10-03T00:15:11.207Z,13.52
2022-10-03T00:21:02.830Z,13.57
2022-10-03T00:26:42.147Z,13.60
2022-10-03T00:29:57.493Z,13.65
2022-10-03T00:35:55.525Z,13.74
2022-10-03T00:42:24.025Z,13.85
2022-10-03T00:45:41.823Z,13.82
2022-10-03T00:51:48.082Z,13.82
2022-10-03T01:00:32.585Z,13.67
2022-10-03T01:06:29.093Z,13.74
2022-10-03T01:12:26.167Z,13.86
2022-10-03T01:18:17.778Z,13.80
2022-10-03T01:27:08.988Z,13.78
2022-10-03T01:32:45.226Z,13.77
2022-10-03T01:38:28.522Z,13.78
2022-10-03T01:44:09.462Z,13.89
2022-10-03T01:49:52.667Z,13.83
2022-10-03T01:52:45.572Z,13.95
2022-10-03T01:55:38.691Z,13.76
2022-10-03T02:01:18.896Z,13.98
2022-10-03T02:06:58.584Z,13.99
2022-10-03T02:12:37.358Z,14.03
2022-10-03T02:18:14.882Z,14.09
2022-10-03T02:24:05.945Z,13.86
2022-10-03T02:27:23.870Z,13.81
2022-10-03T02:30:24.901Z,13.75
2022-10-03T02:34:05.523Z,13.68
2022-10-03T02:37:17.809Z,13.50
2022-10-03T02:40:50.831Z,13.70
2022-10-03T02:44:12.747Z,13.71
2022-10-03T02:50:40.363Z,13.50
2022-10-03T02:57:34.765Z,13.49
2022-10-03T03:03:41.513Z,13.47
2022-10-03T03:10:05.910Z,13.57
2022-10-03T03:17:14.191Z,13.64
2022-10-03T03:22:59.954Z,13.67
2022-10-03T03:28:55.438Z,13.65
2022-10-03T03:37:13.017Z,13.44
2022-10-03T03:43:04.003Z,13.45
2022-10-03T03:46:14.734Z,13.40
2022-10-03T03:49:13.644Z,13.38
2022-10-03T03:52:13.607Z,13.45
2022-10-03T03:58:14.318Z,13.39
2022-10-03T04:01:49.655Z,13.36
2022-10-03T04:04:53.261Z,13.40
2022-10-03T04:07:55.080Z,13.40
2022-10-03T04:10:54.504Z,13.36
2022-10-03T04:13:51.156Z,13.65
2022-10-03T04:19:51.745Z,13.48
2022-10-03T04:25:49.132Z,13.54
2022-10-03T04:29:28.995Z,13.47
2022-10-03T04:32:28.538Z,13.42
2022-10-03T04:38:21.268Z,13.43
2022-10-03T04:44:05.768Z,13.17
2022-10-03T04:49:43.914Z,13.02
2022-10-03T04:55:27.660Z,12.83
2022-10-03T04:58:25.531Z,12.79
2022-10-03T05:04:04.914Z,12.50
2022-10-03T05:12:50.243Z,12.36
2022-10-03T05:18:27.062Z,12.37
2022-10-03T05:21:16.580Z,12.26
2022-10-03T05:27:00.355Z,12.24
2022-10-03T05:32:35.995Z,12.26
2022-10-03T05:38:45.869Z,12.46
2022-10-03T05:47:41.918Z,12.34
2022-10-03T05:50:59.949Z,12.30
2022-10-03T05:54:35.261Z,12.35
2022-10-03T05:57:42.457Z,12.29
2022-10-03T06:00:37.078Z,12.36
2022-10-03T06:04:00.870Z,12.39
2022-10-03T06:09:46.712Z,12.49
2022-10-03T06:19:16.295Z,12.47
2022-10-03T06:22:47.094Z,12.44
2022-10-03T06:29:32.789Z,12.72
2022-10-03T06:32:51.162Z,12.64
2022-10-03T06:36:33.315Z,12.78
2022-10-03T06:39:51.885Z,12.60
2022-10-03T06:45:47.987Z,12.71
2022-10-03T06:49:17.260Z,12.70
2022-10-03T06:52:26.450Z,12.78
2022-10-03T06:59:05.355Z,12.84
2022-10-03T07:02:58.648Z,12.84
2022-10-03T07:09:34.435Z,12.80
2022-10-03T07:22:19.784Z,12.72
2022-10-03T07:28:51.177Z,12.88
2022-10-03T07:35:18.909Z,12.95
2022-10-03T07:38:40.562Z,13.07
2022-10-03T07:45:01.282Z,13.09
2022-10-03T07:48:45.199Z,13.11
2022-10-03T07:54:33.118Z,13.33
2022-10-03T08:00:40.510Z,13.40
2022-10-03T08:06:38.713Z,13.70
2022-10-03T08:13:02.373Z,13.72
2022-10-03T08:19:14.631Z,13.79
2022-10-03T08:22:10.138Z,13.90
2022-10-03T08:28:20.527Z,14.35
2022-10-03T08:31:20.926Z,14.09
2022-10-03T08:41:14.661Z,14.52
2022-10-03T08:45:01.529Z,14.86
2022-10-03T08:51:44.798Z,14.57
2022-10-03T08:55:02.249Z,14.21
2022-10-03T09:01:16.258Z,14.21
2022-10-03T09:04:36.668Z,14.34
2022-10-03T09:11:13.106Z,14.35
2022-10-03T09:14:56.529Z,14.33
2022-10-03T09:21:17.753Z,14.66
2022-10-03T09:24:17.625Z,14.85
2022-10-03T09:30:44.853Z,14.83
2022-10-03T09:37:13.180Z,14.82
2022-10-03T09:43:48.304Z,14.99
2022-10-03T09:49:55.053Z,15.15
2022-10-03T09:58:41.280Z,15.44
2022-10-03T10:04:54.960Z,15.74
2022-10-03T10:11:21.508Z,16.02
2022-10-03T10:18:03.037Z,15.82
2022-10-03T10:21:46.398Z,15.75
2022-10-03T10:28:40.817Z,16.02
2022-10-03T10:31:52.862Z,16.02
2022-10-03T10:35:12.093Z,16.19
2022-10-03T10:42:13.823Z,16.64
2022-10-03T10:48:50.359Z,16.78
2022-10-03T10:55:21.558Z,16.95
2022-10-03T11:02:02.220Z,16.16
2022-10-03T11:05:28.475Z,16.27
2022-10-03T11:09:05.218Z,16.39
2022-10-03T11:12:33.207Z,16.28
2022-10-03T11:16:06.657Z,16.67
2022-10-03T11:23:04.806Z,17.31
2022-10-03T11:26:18.131Z,17.55
2022-10-03T11:29:59.468Z,18.03
2022-10-03T11:36:14.051Z,17.12
2022-10-03T11:41:57.265Z,16.95
2022-10-03T11:44:48.591Z,17.05
2022-10-03T11:53:43.697Z,18.16
2022-10-03T11:59:30.517Z,17.80
2022-10-03T12:05:12.991Z,18.87
2022-10-03T12:10:58.783Z,18.02
2022-10-03T12:16:29.852Z,17.68
2022-10-03T12:22:04.613Z,17.68
2022-10-03T12:30:33.395Z,17.35
2022-10-03T12:36:23.066Z,17.06
2022-10-03T12:39:20.236Z,17.03
2022-10-03T12:48:02.582Z,16.98
2022-10-03T12:59:35.135Z,16.67
2022-10-03T13:02:29.811Z,16.77
2022-10-03T13:08:26.544Z,16.95
2022-10-03T13:11:25.979Z,16.99
2022-10-03T13:17:09.868Z,16.69
2022-10-03T13:22:51.456Z,16.80
2022-10-03T13:25:44.826Z,16.82
2022-10-03T13:31:24.490Z,17.12
2022-10-03T13:34:15.708Z,17.28
2022-10-03T13:37:10.139Z,17.07
2022-10-03T13:42:48.648Z,17.07
2022-10-03T13:48:20.454Z,16.94
2022-10-03T13:54:03.745Z,17.12
2022-10-03T13:56:57.647Z,16.94
2022-10-03T14:02:52.294Z,16.99
2022-10-03T14:05:59.343Z,16.72
2022-10-03T14:11:57.996Z,17.05
2022-10-03T14:17:38.868Z,17.01
2022-10-03T14:23:20.815Z,16.88
2022-10-03T14:29:00.130Z,16.77
2022-10-03T14:34:43.650Z,16.77
2022-10-03T14:40:36.183Z,17.20
2022-10-03T14:59:42.597Z,16.30
2022-10-03T15:05:23.867Z,16.16
2022-10-03T15:08:16.735Z,16.01
2022-10-03T15:16:47.049Z,15.99
2022-10-03T15:25:28.780Z,15.79
2022-10-03T15:28:20.625Z,15.72
2022-10-03T15:33:56.970Z,15.79
2022-10-03T15:39:29.091Z,15.88
2022-10-03T15:48:05.164Z,15.95
2022-10-03T15:53:41.018Z,15.88
2022-10-03T15:59:22.109Z,15.88
2022-10-03T16:04:57.024Z,15.77
2022-10-03T16:10:35.663Z,15.70
2022-10-03T16:16:15.277Z,15.59
2022-10-03T16:22:15.272Z,15.63
2022-10-03T16:28:02.728Z,15.51
2022-10-03T16:33:33.890Z,15.38
2022-10-03T16:39:05.059Z,15.48
2022-10-03T16:41:55.232Z,15.40
2022-10-03T16:47:36.740Z,15.30
2022-10-03T16:53:14.362Z,14.97
2022-10-03T16:58:49.490Z,14.67
2022-10-03T17:04:26.566Z,14.73
2022-10-03T17:07:17.616Z,14.67
2022-10-03T17:10:08.493Z,14.47
2022-10-03T17:13:03.524Z,14.63
2022-10-03T17:18:35.932Z,14.54
2022-10-03T17:24:28.829Z,14.33
2022-10-03T17:27:24.998Z,14.22
2022-10-03T17:30:22.665Z,14.28
2022-10-03T17:36:01.953Z,14.32
2022-10-03T17:41:41.709Z,14.43
2022-10-03T17:47:23.097Z,14.40
2022-10-03T17:53:01.559Z,14.31
2022-10-03T17:58:53.158Z,14.33
2022-10-03T18:01:49.005Z,14.26
2022-10-03T18:07:35.484Z,14.07
2022-10-03T18:13:17.995Z,14.09
2022-10-03T18:25:33.953Z,14.13
2022-10-03T18:31:13.728Z,13.96
2022-10-03T18:34:49.350Z,13.90
2022-10-03T18:38:14.943Z,13.90
2022-10-03T18:43:49.777Z,13.75
2022-10-03T18:49:33.537Z,13.75
2022-10-03T18:55:02.449Z,13.66
2022-10-03T19:00:42.826Z,13.84
2022-10-03T19:03:34.568Z,13.74
2022-10-03T19:12:11.125Z,13.75
2022-10-03T19:20:33.197Z,13.53
2022-10-03T19:23:27.353Z,13.52
2022-10-03T19:26:24.390Z,13.47
2022-10-03T19:35:06.941Z,13.44
2022-10-03T19:40:48.626Z,13.28
2022-10-03T19:43:40.767Z,13.20
2022-10-03T19:46:45.130Z,13.12
2022-10-03T19:49:42.713Z,12.99
2022-10-03T19:55:24.265Z,13.06
2022-10-03T20:01:07.551Z,13.08
2022-10-03T20:03:58.155Z,13.12
2022-10-03T20:09:40.339Z,12.97
2022-10-03T20:12:31.030Z,12.88
2022-10-03T20:15:23.108Z,12.90
2022-10-03T20:18:22.447Z,12.77
2022-10-03T20:21:12.851Z,12.86
2022-10-03T20:24:02.550Z,12.87
2022-10-03T20:29:42.921Z,12.82
2022-10-03T20:35:23.939Z,12.71
2022-10-03T20:41:08.399Z,12.70
2022-10-03T20:43:58.971Z,12.68
2022-10-03T20:49:56.239Z,12.70
2022-10-03T20:55:35.977Z,12.66
2022-10-03T21:03:51.553Z,12.66
2022-10-03T21:09:43.557Z,12.49
2022-10-03T21:15:30.147Z,12.41
2022-10-03T21:18:24.155Z,12.31
2022-10-03T21:21:16.326Z,12.29
2022-10-03T21:24:07.917Z,12.28
2022-10-03T21:26:58.487Z,12.29
2022-10-03T21:29:59.215Z,12.24
2022-10-03T21:33:01.692Z,12.24
2022-10-03T21:35:51.656Z,12.22
2022-10-03T21:44:18.928Z,12.06
2022-10-03T21:50:04.957Z,12.03
2022-10-03T21:56:09.160Z,11.89
2022-10-03T21:59:14.668Z,11.81
2022-10-03T22:02:05.624Z,11.74
2022-10-03T22:04:57.664Z,11.64
2022-10-03T22:07:46.070Z,11.46
2022-10-03T22:13:19.812Z,11.55
2022-10-03T22:16:12.227Z,11.50
2022-10-03T22:19:08.731Z,11.23
2022-10-03T22:22:14.034Z,11.02
2022-10-03T22:27:58.858Z,11.06
2022-10-03T22:33:44.793Z,11.01
2022-10-03T22:39:22.306Z,10.96
2022-10-03T22:45:00.105Z,11.09
2022-10-03T22:47:51.184Z,11.01
2022-10-03T22:53:23.249Z,11.06
2022-10-03T22:56:39.450Z,10.92
2022-10-03T23:02:17.624Z,10.73
2022-10-03T23:08:04.349Z,10.80
2022-10-03T23:13:45.291Z,10.78
2022-10-03T23:19:33.408Z,10.59
2022-10-03T23:28:14.168Z,10.42
2022-10-03T23:33:54.394Z,10.44
2022-10-03T23:39:43.067Z,10.43
2022-10-03T23:45:20.158Z,10.29
2022-10-03T23:51:00.377Z,10.30
2022-10-03T23:56:36.164Z,10.42
